sensor_id;sensor_type;location;lat;lon;timestamp;temperature;humidity
5834;DHT22;2943;48.012;10.968;2022-12-10T00:02:14;0.90;99.90
5834;DHT22;2943;48.012;10.968;2022-12-10T00:04:41;0.90;99.90
5834;DHT22;2943;48.012;10.968;2022-12-10T00:07:07;0.90;99.90
5834;DHT22;2943;48.012;10.968;2022-12-10T00:09:34;0.90;99.90
5834;DHT22;2943;48.012;10.968;2022-12-10T00:12:01;0.90;99.90
5834;DHT22;2943;48.012;10.968;2022-12-10T00:14:28;0.90;99.90
5834;DHT22;2943;48.012;10.968;2022-12-10T00:16:56;0.90;99.90
5834;DHT22;2943;48.012;10.968;2022-12-10T00:19:23;1.00;99.90
5834;DHT22;2943;48.012;10.968;2022-12-10T00:21:50;1.00;99.90
5834;DHT22;2943;48.012;10.968;2022-12-10T00:24:17;1.00;99.90
5834;DHT22;2943;48.012;10.968;2022-12-10T00:26:44;1.00;99.90
5834;DHT22;2943;48.012;10.968;2022-12-10T00:29:12;1.00;99.90
5834;DHT22;2943;48.012;10.968;2022-12-10T00:31:39;1.00;99.90
5834;DHT22;2943;48.012;10.968;2022-12-10T00:34:08;1.00;99.90
5834;DHT22;2943;48.012;10.968;2022-12-10T00:36:38;0.90;99.90
5834;DHT22;2943;48.012;10.968;2022-12-10T00:39:06;0.90;99.90
5834;DHT22;2943;48.012;10.968;2022-12-10T00:41:33;0.90;99.90
5834;DHT22;2943;48.012;10.968;2022-12-10T00:43:59;0.90;99.90
5834;DHT22;2943;48.012;10.968;2022-12-10T00:46:26;0.90;99.90
5834;DHT22;2943;48.012;10.968;2022-12-10T00:48:53;0.90;99.90
5834;DHT22;2943;48.012;10.968;2022-12-10T00:51:23;0.90;99.90
5834;DHT22;2943;48.012;10.968;2022-12-10T00:53:52;0.90;99.90
5834;DHT22;2943;48.012;10.968;2022-12-10T00:56:20;0.90;99.90
5834;DHT22;2943;48.012;10.968;2022-12-10T00:58:48;0.90;99.90
5834;DHT22;2943;48.012;10.968;2022-12-10T01:01:17;0.90;99.90
5834;DHT22;2943;48.012;10.968;2022-12-10T01:03:45;0.70;99.90
5834;DHT22;2943;48.012;10.968;2022-12-10T01:06:14;0.60;99.90
5834;DHT22;2943;48.012;10.968;2022-12-10T01:08:43;0.60;99.90
5834;DHT22;2943;48.012;10.968;2022-12-10T01:11:10;0.60;99.90
5834;DHT22;2943;48.012;10.968;2022-12-10T01:13:39;0.60;99.90
5834;DHT22;2943;48.012;10.968;2022-12-10T01:16:08;0.50;99.90
5834;DHT22;2943;48.012;10.968;2022-12-10T01:18:35;0.50;99.90
5834;DHT22;2943;48.012;10.968;2022-12-10T01:21:02;0.50;99.90
5834;DHT22;2943;48.012;10.968;2022-12-10T01:23:31;0.50;99.90
5834;DHT22;2943;48.012;10.968;2022-12-10T01:26:01;0.50;99.90
5834;DHT22;2943;48.012;10.968;2022-12-10T01:28:30;0.50;99.90
5834;DHT22;2943;48.012;10.968;2022-12-10T01:31:00;0.50;99.90
5834;DHT22;2943;48.012;10.968;2022-12-10T01:33:28;0.40;99.90
5834;DHT22;2943;48.012;10.968;2022-12-10T01:35:55;0.50;99.90
5834;DHT22;2943;48.012;10.968;2022-12-10T01:38:22;0.50;99.90
5834;DHT22;2943;48.012;10.968;2022-12-10T01:40:49;0.50;99.90
5834;DHT22;2943;48.012;10.968;2022-12-10T01:43:17;0.50;99.90
5834;DHT22;2943;48.012;10.968;2022-12-10T01:45:44;0.50;99.90
5834;DHT22;2943;48.012;10.968;2022-12-10T01:48:11;0.50;99.90
5834;DHT22;2943;48.012;10.968;2022-12-10T01:50:38;0.50;99.90
5834;DHT22;2943;48.012;10.968;2022-12-10T01:53:05;0.50;99.90
5834;DHT22;2943;48.012;10.968;2022-12-10T01:55:42;0.70;99.90
5834;DHT22;2943;48.012;10.968;2022-12-10T01:58:10;0.80;99.90
5834;DHT22;2943;48.012;10.968;2022-12-10T02:00:56;0.70;99.90
5834;DHT22;2943;48.012;10.968;2022-12-10T02:03:32;0.70;99.90
5834;DHT22;2943;48.012;10.968;2022-12-10T02:06:12;0.70;99.90
5834;DHT22;2943;48.012;10.968;2022-12-10T02:08:51;0.70;99.90
5834;DHT22;2943;48.012;10.968;2022-12-10T02:11:24;0.70;99.90
5834;DHT22;2943;48.012;10.968;2022-12-10T02:14:01;0.70;99.90
5834;DHT22;2943;48.012;10.968;2022-12-10T02:16:34;0.70;99.90
5834;DHT22;2943;48.012;10.968;2022-12-10T02:19:09;0.70;99.90
5834;DHT22;2943;48.012;10.968;2022-12-10T02:21:42;0.70;99.90
5834;DHT22;2943;48.012;10.968;2022-12-10T02:24:14;0.70;99.90
5834;DHT22;2943;48.012;10.968;2022-12-10T02:26:45;0.70;99.90
5834;DHT22;2943;48.012;10.968;2022-12-10T02:29:16;0.70;99.90
5834;DHT22;2943;48.012;10.968;2022-12-10T02:31:46;0.70;99.90
5834;DHT22;2943;48.012;10.968;2022-12-10T02:34:16;0.70;99.90
5834;DHT22;2943;48.012;10.968;2022-12-10T02:36:46;0.70;99.90
5834;DHT22;2943;48.012;10.968;2022-12-10T02:39:17;0.70;99.90
5834;DHT22;2943;48.012;10.968;2022-12-10T02:41:48;0.70;99.90
5834;DHT22;2943;48.012;10.968;2022-12-10T02:44:18;0.80;99.90
5834;DHT22;2943;48.012;10.968;2022-12-10T02:46:51;0.80;99.90
5834;DHT22;2943;48.012;10.968;2022-12-10T02:49:18;0.80;99.90
5834;DHT22;2943;48.012;10.968;2022-12-10T02:51:45;0.80;99.90
5834;DHT22;2943;48.012;10.968;2022-12-10T02:54:35;0.80;99.90
5834;DHT22;2943;48.012;10.968;2022-12-10T02:57:08;0.90;99.90
5834;DHT22;2943;48.012;10.968;2022-12-10T02:59:48;0.90;99.90
5834;DHT22;2943;48.012;10.968;2022-12-10T03:02:20;0.90;99.90
5834;DHT22;2943;48.012;10.968;2022-12-10T03:04:55;0.90;99.90
5834;DHT22;2943;48.012;10.968;2022-12-10T03:07:28;0.80;99.90
5834;DHT22;2943;48.012;10.968;2022-12-10T03:10:02;0.80;99.90
5834;DHT22;2943;48.012;10.968;2022-12-10T03:12:34;0.80;99.90
5834;DHT22;2943;48.012;10.968;2022-12-10T03:15:07;0.80;99.90
5834;DHT22;2943;48.012;10.968;2022-12-10T03:17:36;0.80;99.90
5834;DHT22;2943;48.012;10.968;2022-12-10T03:20:07;0.80;99.90
5834;DHT22;2943;48.012;10.968;2022-12-10T03:22:35;0.80;99.90
5834;DHT22;2943;48.012;10.968;2022-12-10T03:25:05;0.80;99.90
5834;DHT22;2943;48.012;10.968;2022-12-10T03:27:33;0.90;99.90
5834;DHT22;2943;48.012;10.968;2022-12-10T03:30:01;0.90;99.90
5834;DHT22;2943;48.012;10.968;2022-12-10T03:32:30;0.90;99.90
5834;DHT22;2943;48.012;10.968;2022-12-10T03:34:58;0.90;99.90
5834;DHT22;2943;48.012;10.968;2022-12-10T03:37:27;0.90;99.90
5834;DHT22;2943;48.012;10.968;2022-12-10T03:39:55;0.90;99.90
5834;DHT22;2943;48.012;10.968;2022-12-10T03:42:22;0.90;99.90
5834;DHT22;2943;48.012;10.968;2022-12-10T03:44:50;0.90;99.90
5834;DHT22;2943;48.012;10.968;2022-12-10T03:47:17;0.90;99.90
5834;DHT22;2943;48.012;10.968;2022-12-10T03:49:45;0.90;99.90
5834;DHT22;2943;48.012;10.968;2022-12-10T03:52:12;0.80;99.90
5834;DHT22;2943;48.012;10.968;2022-12-10T03:54:39;0.80;99.90
5834;DHT22;2943;48.012;10.968;2022-12-10T03:57:06;0.80;99.90
5834;DHT22;2943;48.012;10.968;2022-12-10T03:59:32;0.70;99.90
5834;DHT22;2943;48.012;10.968;2022-12-10T04:01:59;0.70;99.90
5834;DHT22;2943;48.012;10.968;2022-12-10T04:04:26;0.70;99.90
5834;DHT22;2943;48.012;10.968;2022-12-10T04:06:55;0.70;99.90
5834;DHT22;2943;48.012;10.968;2022-12-10T04:09:21;0.70;99.90
5834;DHT22;2943;48.012;10.968;2022-12-10T04:11:48;0.60;99.90
5834;DHT22;2943;48.012;10.968;2022-12-10T04:14:15;0.60;99.90
5834;DHT22;2943;48.012;10.968;2022-12-10T04:16:59;0.60;99.90
5834;DHT22;2943;48.012;10.968;2022-12-10T04:19:26;0.60;99.90
5834;DHT22;2943;48.012;10.968;2022-12-10T04:21:54;0.50;99.90
5834;DHT22;2943;48.012;10.968;2022-12-10T04:24:39;0.50;99.90
5834;DHT22;2943;48.012;10.968;2022-12-10T04:27:24;0.50;99.90
5834;DHT22;2943;48.012;10.968;2022-12-10T04:29:52;0.50;99.90
5834;DHT22;2943;48.012;10.968;2022-12-10T04:32:19;0.40;99.90
5834;DHT22;2943;48.012;10.968;2022-12-10T04:34:46;0.40;99.90
5834;DHT22;2943;48.012;10.968;2022-12-10T04:37:15;0.40;99.90
5834;DHT22;2943;48.012;10.968;2022-12-10T04:39:43;0.40;99.90
5834;DHT22;2943;48.012;10.968;2022-12-10T04:42:10;0.40;99.90
5834;DHT22;2943;48.012;10.968;2022-12-10T04:44:37;0.50;99.90
5834;DHT22;2943;48.012;10.968;2022-12-10T04:47:06;0.50;99.90
5834;DHT22;2943;48.012;10.968;2022-12-10T04:49:33;0.50;99.90
5834;DHT22;2943;48.012;10.968;2022-12-10T04:52:00;0.50;99.90
5834;DHT22;2943;48.012;10.968;2022-12-10T04:54:29;0.50;99.90
5834;DHT22;2943;48.012;10.968;2022-12-10T04:56:56;0.60;99.90
5834;DHT22;2943;48.012;10.968;2022-12-10T04:59:23;0.60;99.90
5834;DHT22;2943;48.012;10.968;2022-12-10T05:01:50;0.60;99.90
5834;DHT22;2943;48.012;10.968;2022-12-10T05:04:18;0.60;99.90
5834;DHT22;2943;48.012;10.968;2022-12-10T05:06:48;0.50;99.90
5834;DHT22;2943;48.012;10.968;2022-12-10T05:09:15;0.60;99.90
5834;DHT22;2943;48.012;10.968;2022-12-10T05:11:43;0.50;99.90
5834;DHT22;2943;48.012;10.968;2022-12-10T05:14:11;0.50;99.90
5834;DHT22;2943;48.012;10.968;2022-12-10T05:16:38;0.50;99.90
5834;DHT22;2943;48.012;10.968;2022-12-10T05:19:05;0.50;99.90
5834;DHT22;2943;48.012;10.968;2022-12-10T05:21:32;0.50;99.90
5834;DHT22;2943;48.012;10.968;2022-12-10T05:24:13;0.50;99.90
5834;DHT22;2943;48.012;10.968;2022-12-10T05:26:40;0.40;99.90
5834;DHT22;2943;48.012;10.968;2022-12-10T05:29:09;0.40;99.90
5834;DHT22;2943;48.012;10.968;2022-12-10T05:31:35;0.40;99.90
5834;DHT22;2943;48.012;10.968;2022-12-10T05:34:03;0.40;99.90
5834;DHT22;2943;48.012;10.968;2022-12-10T05:36:31;0.40;99.90
5834;DHT22;2943;48.012;10.968;2022-12-10T05:38:58;0.40;99.90
5834;DHT22;2943;48.012;10.968;2022-12-10T05:41:27;0.40;99.90
5834;DHT22;2943;48.012;10.968;2022-12-10T05:43:56;0.50;99.90
5834;DHT22;2943;48.012;10.968;2022-12-10T05:46:26;0.50;99.90
5834;DHT22;2943;48.012;10.968;2022-12-10T05:48:54;0.60;99.90
5834;DHT22;2943;48.012;10.968;2022-12-10T05:51:22;0.60;99.90
5834;DHT22;2943;48.012;10.968;2022-12-10T05:53:50;0.60;99.90
5834;DHT22;2943;48.012;10.968;2022-12-10T05:56:18;0.70;99.90
5834;DHT22;2943;48.012;10.968;2022-12-10T05:58:46;0.70;99.90
5834;DHT22;2943;48.012;10.968;2022-12-10T06:01:15;0.70;99.90
5834;DHT22;2943;48.012;10.968;2022-12-10T06:03:44;0.70;99.90
5834;DHT22;2943;48.012;10.968;2022-12-10T06:06:11;0.70;99.90
5834;DHT22;2943;48.012;10.968;2022-12-10T06:08:39;0.70;99.90
5834;DHT22;2943;48.012;10.968;2022-12-10T06:11:09;0.80;99.90
5834;DHT22;2943;48.012;10.968;2022-12-10T06:13:37;0.80;99.90
5834;DHT22;2943;48.012;10.968;2022-12-10T06:16:05;0.80;99.90
5834;DHT22;2943;48.012;10.968;2022-12-10T06:18:32;0.70;99.90
5834;DHT22;2943;48.012;10.968;2022-12-10T06:21:02;0.70;99.90
5834;DHT22;2943;48.012;10.968;2022-12-10T06:23:29;0.70;99.90
5834;DHT22;2943;48.012;10.968;2022-12-10T06:25:56;0.70;99.90
5834;DHT22;2943;48.012;10.968;2022-12-10T06:28:23;0.70;99.90
5834;DHT22;2943;48.012;10.968;2022-12-10T06:30:49;0.70;99.90
5834;DHT22;2943;48.012;10.968;2022-12-10T06:33:16;0.70;99.90
5834;DHT22;2943;48.012;10.968;2022-12-10T06:35:43;0.70;99.90
5834;DHT22;2943;48.012;10.968;2022-12-10T06:38:11;0.70;99.90
5834;DHT22;2943;48.012;10.968;2022-12-10T06:40:39;0.70;99.90
5834;DHT22;2943;48.012;10.968;2022-12-10T06:43:06;0.80;99.90
5834;DHT22;2943;48.012;10.968;2022-12-10T06:45:33;0.70;99.90
5834;DHT22;2943;48.012;10.968;2022-12-10T06:48:00;0.70;99.90
5834;DHT22;2943;48.012;10.968;2022-12-10T06:50:27;0.70;99.90
5834;DHT22;2943;48.012;10.968;2022-12-10T06:52:53;0.70;99.90
5834;DHT22;2943;48.012;10.968;2022-12-10T06:55:22;0.70;99.90
5834;DHT22;2943;48.012;10.968;2022-12-10T06:57:50;0.60;99.90
5834;DHT22;2943;48.012;10.968;2022-12-10T07:00:18;0.50;99.90
5834;DHT22;2943;48.012;10.968;2022-12-10T07:02:45;0.60;99.90
5834;DHT22;2943;48.012;10.968;2022-12-10T07:05:12;0.50;99.90
5834;DHT22;2943;48.012;10.968;2022-12-10T07:07:39;0.50;99.90
5834;DHT22;2943;48.012;10.968;2022-12-10T07:10:07;0.50;99.90
5834;DHT22;2943;48.012;10.968;2022-12-10T07:12:35;0.50;99.90
5834;DHT22;2943;48.012;10.968;2022-12-10T07:15:02;0.40;99.90
5834;DHT22;2943;48.012;10.968;2022-12-10T07:17:29;0.40;99.90
5834;DHT22;2943;48.012;10.968;2022-12-10T07:19:56;0.30;99.90
5834;DHT22;2943;48.012;10.968;2022-12-10T07:22:23;0.30;99.90
5834;DHT22;2943;48.012;10.968;2022-12-10T07:24:50;0.20;99.90
5834;DHT22;2943;48.012;10.968;2022-12-10T07:27:17;0.20;99.90
5834;DHT22;2943;48.012;10.968;2022-12-10T07:29:45;0.20;99.90
5834;DHT22;2943;48.012;10.968;2022-12-10T07:32:12;0.20;99.90
5834;DHT22;2943;48.012;10.968;2022-12-10T07:34:39;0.20;99.90
5834;DHT22;2943;48.012;10.968;2022-12-10T07:37:06;0.10;99.90
5834;DHT22;2943;48.012;10.968;2022-12-10T07:39:33;0.20;99.90
5834;DHT22;2943;48.012;10.968;2022-12-10T07:42:00;0.20;99.90
5834;DHT22;2943;48.012;10.968;2022-12-10T07:44:27;0.20;99.90
5834;DHT22;2943;48.012;10.968;2022-12-10T07:46:55;0.20;99.90
5834;DHT22;2943;48.012;10.968;2022-12-10T07:49:23;0.20;99.90
5834;DHT22;2943;48.012;10.968;2022-12-10T07:51:50;0.20;99.90
5834;DHT22;2943;48.012;10.968;2022-12-10T07:54:20;0.20;99.90
5834;DHT22;2943;48.012;10.968;2022-12-10T07:56:48;0.10;99.90
5834;DHT22;2943;48.012;10.968;2022-12-10T07:59:17;0.10;99.90
5834;DHT22;2943;48.012;10.968;2022-12-10T08:01:45;0.10;99.90
5834;DHT22;2943;48.012;10.968;2022-12-10T08:04:16;0.10;99.90
5834;DHT22;2943;48.012;10.968;2022-12-10T08:06:44;0.10;99.90
5834;DHT22;2943;48.012;10.968;2022-12-10T08:09:11;0.10;99.90
5834;DHT22;2943;48.012;10.968;2022-12-10T08:11:39;0.10;99.90
5834;DHT22;2943;48.012;10.968;2022-12-10T08:14:06;0.10;99.90
5834;DHT22;2943;48.012;10.968;2022-12-10T08:16:34;0.10;99.90
5834;DHT22;2943;48.012;10.968;2022-12-10T08:19:02;0.10;99.90
5834;DHT22;2943;48.012;10.968;2022-12-10T08:21:32;0.00;99.90
5834;DHT22;2943;48.012;10.968;2022-12-10T08:23:59;0.10;99.90
5834;DHT22;2943;48.012;10.968;2022-12-10T08:26:28;0.10;99.90
5834;DHT22;2943;48.012;10.968;2022-12-10T08:28:56;0.00;99.90
5834;DHT22;2943;48.012;10.968;2022-12-10T08:31:25;0.10;99.90
5834;DHT22;2943;48.012;10.968;2022-12-10T08:33:52;0.20;99.90
5834;DHT22;2943;48.012;10.968;2022-12-10T08:36:20;0.40;99.90
5834;DHT22;2943;48.012;10.968;2022-12-10T08:38:49;0.70;99.90
5834;DHT22;2943;48.012;10.968;2022-12-10T08:41:18;0.90;99.90
5834;DHT22;2943;48.012;10.968;2022-12-10T08:43:48;1.10;99.90
5834;DHT22;2943;48.012;10.968;2022-12-10T08:46:22;1.30;99.90
5834;DHT22;2943;48.012;10.968;2022-12-10T08:48:51;1.50;99.90
5834;DHT22;2943;48.012;10.968;2022-12-10T08:51:19;1.60;99.90
5834;DHT22;2943;48.012;10.968;2022-12-10T08:53:50;1.70;99.90
5834;DHT22;2943;48.012;10.968;2022-12-10T08:56:18;1.80;99.90
5834;DHT22;2943;48.012;10.968;2022-12-10T08:58:45;1.80;99.90
5834;DHT22;2943;48.012;10.968;2022-12-10T09:01:16;1.70;99.90
5834;DHT22;2943;48.012;10.968;2022-12-10T09:03:46;1.50;99.90
5834;DHT22;2943;48.012;10.968;2022-12-10T09:06:15;1.40;99.90
5834;DHT22;2943;48.012;10.968;2022-12-10T09:08:43;1.30;99.90
5834;DHT22;2943;48.012;10.968;2022-12-10T09:11:14;1.20;99.90
5834;DHT22;2943;48.012;10.968;2022-12-10T09:13:42;1.10;99.90
5834;DHT22;2943;48.012;10.968;2022-12-10T09:16:09;1.00;99.90
5834;DHT22;2943;48.012;10.968;2022-12-10T09:18:37;0.90;99.90
5834;DHT22;2943;48.012;10.968;2022-12-10T09:21:05;0.90;99.90
5834;DHT22;2943;48.012;10.968;2022-12-10T09:23:33;0.90;99.90
5834;DHT22;2943;48.012;10.968;2022-12-10T09:26:00;0.90;99.90
5834;DHT22;2943;48.012;10.968;2022-12-10T09:28:32;0.90;99.90
5834;DHT22;2943;48.012;10.968;2022-12-10T09:31:00;0.80;99.90
5834;DHT22;2943;48.012;10.968;2022-12-10T09:33:28;0.80;99.90
5834;DHT22;2943;48.012;10.968;2022-12-10T09:35:55;0.80;99.90
5834;DHT22;2943;48.012;10.968;2022-12-10T09:38:23;0.80;99.90
5834;DHT22;2943;48.012;10.968;2022-12-10T09:41:00;0.80;99.90
5834;DHT22;2943;48.012;10.968;2022-12-10T09:43:43;0.80;99.90
5834;DHT22;2943;48.012;10.968;2022-12-10T09:46:18;0.80;99.90
5834;DHT22;2943;48.012;10.968;2022-12-10T09:48:58;0.70;99.90
5834;DHT22;2943;48.012;10.968;2022-12-10T09:51:29;0.60;99.90
5834;DHT22;2943;48.012;10.968;2022-12-10T09:53:58;0.60;99.90
5834;DHT22;2943;48.012;10.968;2022-12-10T09:56:32;0.50;99.90
5834;DHT22;2943;48.012;10.968;2022-12-10T09:59:11;0.50;99.90
5834;DHT22;2943;48.012;10.968;2022-12-10T10:01:42;0.50;99.90
5834;DHT22;2943;48.012;10.968;2022-12-10T10:04:10;0.50;99.90
5834;DHT22;2943;48.012;10.968;2022-12-10T10:06:38;0.40;99.90
5834;DHT22;2943;48.012;10.968;2022-12-10T10:09:07;0.40;99.90
5834;DHT22;2943;48.012;10.968;2022-12-10T10:11:39;0.40;99.90
5834;DHT22;2943;48.012;10.968;2022-12-10T10:14:12;0.50;99.90
5834;DHT22;2943;48.012;10.968;2022-12-10T10:16:44;0.60;99.90
5834;DHT22;2943;48.012;10.968;2022-12-10T10:19:16;0.60;99.90
5834;DHT22;2943;48.012;10.968;2022-12-10T10:21:44;0.60;99.90
5834;DHT22;2943;48.012;10.968;2022-12-10T10:24:14;0.70;99.90
5834;DHT22;2943;48.012;10.968;2022-12-10T10:26:44;0.70;99.90
5834;DHT22;2943;48.012;10.968;2022-12-10T10:29:16;0.70;99.90
5834;DHT22;2943;48.012;10.968;2022-12-10T10:31:44;0.70;99.90
5834;DHT22;2943;48.012;10.968;2022-12-10T10:34:15;0.70;99.90
5834;DHT22;2943;48.012;10.968;2022-12-10T10:36:43;0.70;99.90
5834;DHT22;2943;48.012;10.968;2022-12-10T10:39:22;0.70;99.90
5834;DHT22;2943;48.012;10.968;2022-12-10T10:41:53;0.70;99.90
5834;DHT22;2943;48.012;10.968;2022-12-10T10:44:27;0.60;99.90
5834;DHT22;2943;48.012;10.968;2022-12-10T10:46:56;0.60;99.90
5834;DHT22;2943;48.012;10.968;2022-12-10T10:49:27;0.50;99.90
5834;DHT22;2943;48.012;10.968;2022-12-10T10:52:00;0.40;99.90
5834;DHT22;2943;48.012;10.968;2022-12-10T10:54:34;0.30;99.90
5834;DHT22;2943;48.012;10.968;2022-12-10T10:57:03;0.30;99.90
5834;DHT22;2943;48.012;10.968;2022-12-10T10:59:34;0.30;99.90
5834;DHT22;2943;48.012;10.968;2022-12-10T11:02:12;0.20;99.90
5834;DHT22;2943;48.012;10.968;2022-12-10T11:04:46;0.20;99.90
5834;DHT22;2943;48.012;10.968;2022-12-10T11:07:21;0.20;99.90
5834;DHT22;2943;48.012;10.968;2022-12-10T11:09:49;0.20;99.90
5834;DHT22;2943;48.012;10.968;2022-12-10T11:12:33;0.10;99.90
5834;DHT22;2943;48.012;10.968;2022-12-10T11:15:28;0.10;99.90
5834;DHT22;2943;48.012;10.968;2022-12-10T11:17:55;0.20;99.90
5834;DHT22;2943;48.012;10.968;2022-12-10T11:20:28;0.20;99.90
5834;DHT22;2943;48.012;10.968;2022-12-10T11:22:58;0.30;99.90
5834;DHT22;2943;48.012;10.968;2022-12-10T11:25:38;0.30;99.90
5834;DHT22;2943;48.012;10.968;2022-12-10T11:28:15;0.30;99.90
5834;DHT22;2943;48.012;10.968;2022-12-10T11:30:53;0.40;99.90
5834;DHT22;2943;48.012;10.968;2022-12-10T11:33:30;0.50;99.90
5834;DHT22;2943;48.012;10.968;2022-12-10T11:36:07;0.50;99.90
5834;DHT22;2943;48.012;10.968;2022-12-10T11:38:47;0.60;99.90
5834;DHT22;2943;48.012;10.968;2022-12-10T11:41:23;0.60;99.90
5834;DHT22;2943;48.012;10.968;2022-12-10T11:44:12;0.60;99.90
5834;DHT22;2943;48.012;10.968;2022-12-10T11:47:08;0.70;99.90
5834;DHT22;2943;48.012;10.968;2022-12-10T11:49:42;0.70;99.90
5834;DHT22;2943;48.012;10.968;2022-12-10T11:52:32;0.60;99.90
5834;DHT22;2943;48.012;10.968;2022-12-10T11:55:11;0.50;99.90
5834;DHT22;2943;48.012;10.968;2022-12-10T11:57:47;0.40;99.90
5834;DHT22;2943;48.012;10.968;2022-12-10T12:00:20;0.30;99.90
5834;DHT22;2943;48.012;10.968;2022-12-10T12:03:24;0.30;99.90
5834;DHT22;2943;48.012;10.968;2022-12-10T12:06:15;0.20;99.90
5834;DHT22;2943;48.012;10.968;2022-12-10T12:08:50;0.20;99.90
5834;DHT22;2943;48.012;10.968;2022-12-10T12:11:30;0.20;99.90
5834;DHT22;2943;48.012;10.968;2022-12-10T12:14:06;0.20;99.90
5834;DHT22;2943;48.012;10.968;2022-12-10T12:16:37;0.20;99.90
5834;DHT22;2943;48.012;10.968;2022-12-10T12:19:13;0.20;99.90
5834;DHT22;2943;48.012;10.968;2022-12-10T12:21:43;0.20;99.90
5834;DHT22;2943;48.012;10.968;2022-12-10T12:24:17;0.30;99.90
5834;DHT22;2943;48.012;10.968;2022-12-10T12:26:50;0.30;99.90
5834;DHT22;2943;48.012;10.968;2022-12-10T12:29:23;0.30;99.90
5834;DHT22;2943;48.012;10.968;2022-12-10T12:31:57;0.30;99.90
5834;DHT22;2943;48.012;10.968;2022-12-10T12:34:35;0.30;99.90
5834;DHT22;2943;48.012;10.968;2022-12-10T12:37:14;0.30;99.90
5834;DHT22;2943;48.012;10.968;2022-12-10T12:39:48;0.30;99.90
5834;DHT22;2943;48.012;10.968;2022-12-10T12:42:23;0.20;99.90
5834;DHT22;2943;48.012;10.968;2022-12-10T12:45:04;0.20;99.90
5834;DHT22;2943;48.012;10.968;2022-12-10T12:47:41;0.20;99.90
5834;DHT22;2943;48.012;10.968;2022-12-10T12:50:26;0.20;99.90
5834;DHT22;2943;48.012;10.968;2022-12-10T12:52:59;0.20;99.90
5834;DHT22;2943;48.012;10.968;2022-12-10T12:55:32;0.20;99.90
5834;DHT22;2943;48.012;10.968;2022-12-10T12:58:14;0.30;99.90
5834;DHT22;2943;48.012;10.968;2022-12-10T13:00:49;0.30;99.90
5834;DHT22;2943;48.012;10.968;2022-12-10T13:03:25;0.30;99.90
5834;DHT22;2943;48.012;10.968;2022-12-10T13:05:55;0.20;99.90
5834;DHT22;2943;48.012;10.968;2022-12-10T13:08:42;0.20;99.90
5834;DHT22;2943;48.012;10.968;2022-12-10T13:11:29;0.20;99.90
5834;DHT22;2943;48.012;10.968;2022-12-10T13:14:28;0.10;99.90
5834;DHT22;2943;48.012;10.968;2022-12-10T13:17:22;0.00;99.90
5834;DHT22;2943;48.012;10.968;2022-12-10T13:19:51;0.00;99.90
5834;DHT22;2943;48.012;10.968;2022-12-10T13:22:41;0.00;99.90
5834;DHT22;2943;48.012;10.968;2022-12-10T13:25:14;0.00;99.90
5834;DHT22;2943;48.012;10.968;2022-12-10T13:27:55;0.00;99.90
5834;DHT22;2943;48.012;10.968;2022-12-10T13:30:34;0.00;99.90
5834;DHT22;2943;48.012;10.968;2022-12-10T13:33:14;0.00;99.90
5834;DHT22;2943;48.012;10.968;2022-12-10T13:35:49;0.00;99.90
5834;DHT22;2943;48.012;10.968;2022-12-10T13:38:23;-0.10;99.90
5834;DHT22;2943;48.012;10.968;2022-12-10T13:41:01;-0.10;99.90
5834;DHT22;2943;48.012;10.968;2022-12-10T13:43:52;-0.10;99.90
5834;DHT22;2943;48.012;10.968;2022-12-10T13:46:57;0.00;99.90
5834;DHT22;2943;48.012;10.968;2022-12-10T13:49:26;-0.10;99.90
5834;DHT22;2943;48.012;10.968;2022-12-10T13:52:01;-0.10;99.90
5834;DHT22;2943;48.012;10.968;2022-12-10T13:54:58;-0.20;99.90
5834;DHT22;2943;48.012;10.968;2022-12-10T13:57:56;-0.20;99.90
5834;DHT22;2943;48.012;10.968;2022-12-10T14:00:34;-0.20;99.90
5834;DHT22;2943;48.012;10.968;2022-12-10T14:03:14;-0.20;99.90
5834;DHT22;2943;48.012;10.968;2022-12-10T14:06:21;-0.30;99.90
5834;DHT22;2943;48.012;10.968;2022-12-10T14:09:02;-0.30;99.90
5834;DHT22;2943;48.012;10.968;2022-12-10T14:11:37;-0.40;99.90
5834;DHT22;2943;48.012;10.968;2022-12-10T14:14:11;-0.40;99.90
5834;DHT22;2943;48.012;10.968;2022-12-10T14:16:41;-0.40;99.90
5834;DHT22;2943;48.012;10.968;2022-12-10T14:19:13;-0.40;99.90
5834;DHT22;2943;48.012;10.968;2022-12-10T14:21:43;-0.40;99.90
5834;DHT22;2943;48.012;10.968;2022-12-10T14:24:26;-0.50;99.90
5834;DHT22;2943;48.012;10.968;2022-12-10T14:27:01;-0.50;99.90
5834;DHT22;2943;48.012;10.968;2022-12-10T14:29:29;-0.50;99.90
5834;DHT22;2943;48.012;10.968;2022-12-10T14:31:57;-0.50;99.90
5834;DHT22;2943;48.012;10.968;2022-12-10T14:34:26;-0.60;99.90
5834;DHT22;2943;48.012;10.968;2022-12-10T14:36:55;-0.60;99.90
5834;DHT22;2943;48.012;10.968;2022-12-10T14:39:26;-0.60;99.90
5834;DHT22;2943;48.012;10.968;2022-12-10T14:41:58;-0.60;99.90
5834;DHT22;2943;48.012;10.968;2022-12-10T14:44:26;-0.60;99.90
5834;DHT22;2943;48.012;10.968;2022-12-10T14:47:03;-0.60;99.90
5834;DHT22;2943;48.012;10.968;2022-12-10T14:49:31;-0.60;99.90
5834;DHT22;2943;48.012;10.968;2022-12-10T14:52:00;-0.70;99.90
5834;DHT22;2943;48.012;10.968;2022-12-10T14:54:29;-0.70;99.90
5834;DHT22;2943;48.012;10.968;2022-12-10T14:57:01;-0.80;99.90
5834;DHT22;2943;48.012;10.968;2022-12-10T14:59:34;-0.90;99.90
5834;DHT22;2943;48.012;10.968;2022-12-10T15:02:13;-0.90;99.90
5834;DHT22;2943;48.012;10.968;2022-12-10T15:04:47;-1.00;99.90
5834;DHT22;2943;48.012;10.968;2022-12-10T15:07:18;-1.00;99.90
5834;DHT22;2943;48.012;10.968;2022-12-10T15:09:47;-1.00;99.90
5834;DHT22;2943;48.012;10.968;2022-12-10T15:12:27;-1.00;99.90
5834;DHT22;2943;48.012;10.968;2022-12-10T15:14:55;-1.00;99.90
5834;DHT22;2943;48.012;10.968;2022-12-10T15:17:42;-1.00;99.90
5834;DHT22;2943;48.012;10.968;2022-12-10T15:20:18;-1.10;99.90
5834;DHT22;2943;48.012;10.968;2022-12-10T15:22:47;-1.10;99.90
5834;DHT22;2943;48.012;10.968;2022-12-10T15:25:26;-1.10;99.90
5834;DHT22;2943;48.012;10.968;2022-12-10T15:27:58;-1.10;99.90
5834;DHT22;2943;48.012;10.968;2022-12-10T15:30:34;-1.10;99.90
5834;DHT22;2943;48.012;10.968;2022-12-10T15:33:17;-1.00;99.90
5834;DHT22;2943;48.012;10.968;2022-12-10T15:35:49;-1.00;99.90
5834;DHT22;2943;48.012;10.968;2022-12-10T15:38:16;-1.00;99.90
5834;DHT22;2943;48.012;10.968;2022-12-10T15:40:44;-1.00;99.90
5834;DHT22;2943;48.012;10.968;2022-12-10T15:43:23;-1.00;99.90
5834;DHT22;2943;48.012;10.968;2022-12-10T15:45:51;-1.00;99.90
5834;DHT22;2943;48.012;10.968;2022-12-10T15:48:20;-1.10;99.90
5834;DHT22;2943;48.012;10.968;2022-12-10T15:50:51;-1.00;99.90
5834;DHT22;2943;48.012;10.968;2022-12-10T15:53:25;-1.00;99.90
5834;DHT22;2943;48.012;10.968;2022-12-10T15:55:53;-1.10;99.90
5834;DHT22;2943;48.012;10.968;2022-12-10T15:58:21;-1.10;99.90
5834;DHT22;2943;48.012;10.968;2022-12-10T16:00:49;-1.10;99.90
5834;DHT22;2943;48.012;10.968;2022-12-10T16:03:17;-1.10;99.90
5834;DHT22;2943;48.012;10.968;2022-12-10T16:05:49;-1.20;99.90
5834;DHT22;2943;48.012;10.968;2022-12-10T16:08:20;-1.30;99.90
5834;DHT22;2943;48.012;10.968;2022-12-10T16:10:48;-1.30;99.90
5834;DHT22;2943;48.012;10.968;2022-12-10T16:13:18;-1.30;99.90
5834;DHT22;2943;48.012;10.968;2022-12-10T16:15:52;-1.30;99.90
5834;DHT22;2943;48.012;10.968;2022-12-10T16:18:22;-1.20;99.90
5834;DHT22;2943;48.012;10.968;2022-12-10T16:20:49;-1.20;99.90
5834;DHT22;2943;48.012;10.968;2022-12-10T16:23:16;-1.10;99.90
5834;DHT22;2943;48.012;10.968;2022-12-10T16:25:44;-1.10;99.90
5834;DHT22;2943;48.012;10.968;2022-12-10T16:28:21;-1.10;99.90